sensor_id;sensor_type;location;lat;lon;timestamp;temperature;humidity
21207;DHT22;10761;48.532;8.026;2022-09-09T00:00:47;19.40;99.90
21207;DHT22;10761;48.532;8.026;2022-09-09T00:03:18;19.30;99.90
21207;DHT22;10761;48.532;8.026;2022-09-09T00:11:16;19.30;99.90
21207;DHT22;10761;48.532;8.026;2022-09-09T00:13:49;19.10;99.90
21207;DHT22;10761;48.532;8.026;2022-09-09T00:16:21;19.00;99.90
21207;DHT22;10761;48.532;8.026;2022-09-09T00:19:05;18.90;99.90
21207;DHT22;10761;48.532;8.026;2022-09-09T00:21:38;18.80;99.90
21207;DHT22;10761;48.532;8.026;2022-09-09T00:24:43;18.70;99.90
21207;DHT22;10761;48.532;8.026;2022-09-09T00:27:21;18.60;99.90
21207;DHT22;10761;48.532;8.026;2022-09-09T00:29:57;18.40;99.90
21207;DHT22;10761;48.532;8.026;2022-09-09T00:32:28;18.10;99.90
21207;DHT22;10761;48.532;8.026;2022-09-09T00:34:58;17.90;99.90
21207;DHT22;10761;48.532;8.026;2022-09-09T00:37:27;17.70;99.90
21207;DHT22;10761;48.532;8.026;2022-09-09T00:39:58;17.40;99.90
21207;DHT22;10761;48.532;8.026;2022-09-09T00:42:29;17.30;99.90
21207;DHT22;10761;48.532;8.026;2022-09-09T00:45:02;17.10;99.90
21207;DHT22;10761;48.532;8.026;2022-09-09T00:47:46;17.00;99.90
21207;DHT22;10761;48.532;8.026;2022-09-09T00:58:23;16.60;99.90
21207;DHT22;10761;48.532;8.026;2022-09-09T01:01:02;16.60;99.90
21207;DHT22;10761;48.532;8.026;2022-09-09T01:03:34;16.50;99.90
21207;DHT22;10761;48.532;8.026;2022-09-09T01:06:01;16.50;99.90
21207;DHT22;10761;48.532;8.026;2022-09-09T01:11:21;16.40;99.90
21207;DHT22;10761;48.532;8.026;2022-09-09T01:14:01;16.40;99.90
21207;DHT22;10761;48.532;8.026;2022-09-09T01:16:30;16.40;99.90
21207;DHT22;10761;48.532;8.026;2022-09-09T01:18:57;16.30;99.90
21207;DHT22;10761;48.532;8.026;2022-09-09T01:21:49;16.40;99.90
21207;DHT22;10761;48.532;8.026;2022-09-09T01:24:26;16.40;99.90
21207;DHT22;10761;48.532;8.026;2022-09-09T01:26:56;16.40;99.90
21207;DHT22;10761;48.532;8.026;2022-09-09T01:29:24;16.30;99.90
21207;DHT22;10761;48.532;8.026;2022-09-09T01:31:58;16.40;99.90
21207;DHT22;10761;48.532;8.026;2022-09-09T01:34:29;16.40;99.90
21207;DHT22;10761;48.532;8.026;2022-09-09T01:37:03;16.40;99.90
21207;DHT22;10761;48.532;8.026;2022-09-09T01:39:32;16.40;99.90
21207;DHT22;10761;48.532;8.026;2022-09-09T01:41:59;16.30;99.90
21207;DHT22;10761;48.532;8.026;2022-09-09T01:44:25;16.40;99.90
21207;DHT22;10761;48.532;8.026;2022-09-09T01:46:51;16.30;99.90
21207;DHT22;10761;48.532;8.026;2022-09-09T01:49:18;16.30;99.90
21207;DHT22;10761;48.532;8.026;2022-09-09T01:51:44;16.30;99.90
21207;DHT22;10761;48.532;8.026;2022-09-09T01:54:11;16.30;99.90
21207;DHT22;10761;48.532;8.026;2022-09-09T02:02:08;16.20;99.90
21207;DHT22;10761;48.532;8.026;2022-09-09T02:04:40;16.10;99.90
21207;DHT22;10761;48.532;8.026;2022-09-09T02:07:43;16.00;99.90
21207;DHT22;10761;48.532;8.026;2022-09-09T02:10:17;15.90;99.90
21207;DHT22;10761;48.532;8.026;2022-09-09T02:12:49;15.90;99.90
21207;DHT22;10761;48.532;8.026;2022-09-09T02:15:30;15.90;99.90
21207;DHT22;10761;48.532;8.026;2022-09-09T02:17:57;15.80;99.90
21207;DHT22;10761;48.532;8.026;2022-09-09T02:20:24;15.80;99.90
21207;DHT22;10761;48.532;8.026;2022-09-09T02:22:53;15.80;99.90
21207;DHT22;10761;48.532;8.026;2022-09-09T02:25:22;15.70;99.90
21207;DHT22;10761;48.532;8.026;2022-09-09T02:27:50;15.60;99.90
21207;DHT22;10761;48.532;8.026;2022-09-09T02:30:19;15.60;99.90
21207;DHT22;10761;48.532;8.026;2022-09-09T02:32:47;15.50;99.90
21207;DHT22;10761;48.532;8.026;2022-09-09T02:35:20;15.40;99.90
21207;DHT22;10761;48.532;8.026;2022-09-09T02:37:48;15.50;99.90
21207;DHT22;10761;48.532;8.026;2022-09-09T02:40:16;15.60;99.90
21207;DHT22;10761;48.532;8.026;2022-09-09T02:42:43;15.70;99.90
21207;DHT22;10761;48.532;8.026;2022-09-09T02:45:11;15.70;99.90
21207;DHT22;10761;48.532;8.026;2022-09-09T02:50:35;15.70;99.90
21207;DHT22;10761;48.532;8.026;2022-09-09T02:53:23;15.70;99.90
21207;DHT22;10761;48.532;8.026;2022-09-09T02:56:23;15.80;99.90
21207;DHT22;10761;48.532;8.026;2022-09-09T02:58:51;15.80;99.90
21207;DHT22;10761;48.532;8.026;2022-09-09T03:01:17;15.80;99.90
21207;DHT22;10761;48.532;8.026;2022-09-09T03:03:43;15.90;99.90
21207;DHT22;10761;48.532;8.026;2022-09-09T03:06:09;15.80;99.90
21207;DHT22;10761;48.532;8.026;2022-09-09T03:08:37;15.90;99.90
21207;DHT22;10761;48.532;8.026;2022-09-09T03:11:03;15.80;99.90
21207;DHT22;10761;48.532;8.026;2022-09-09T03:13:28;15.80;99.90
21207;DHT22;10761;48.532;8.026;2022-09-09T03:15:54;15.80;99.90
21207;DHT22;10761;48.532;8.026;2022-09-09T03:18:20;15.80;99.90
21207;DHT22;10761;48.532;8.026;2022-09-09T03:20:46;15.90;99.90
21207;DHT22;10761;48.532;8.026;2022-09-09T03:23:16;15.90;99.90
21207;DHT22;10761;48.532;8.026;2022-09-09T03:25:48;15.90;99.90
21207;DHT22;10761;48.532;8.026;2022-09-09T03:28:14;15.90;99.90
21207;DHT22;10761;48.532;8.026;2022-09-09T03:30:40;15.90;99.90
21207;DHT22;10761;48.532;8.026;2022-09-09T03:33:06;15.90;99.90
21207;DHT22;10761;48.532;8.026;2022-09-09T03:35:32;16.00;99.90
21207;DHT22;10761;48.532;8.026;2022-09-09T03:37:57;16.10;99.90
21207;DHT22;10761;48.532;8.026;2022-09-09T03:40:23;16.20;99.90
21207;DHT22;10761;48.532;8.026;2022-09-09T03:42:48;16.20;99.90
21207;DHT22;10761;48.532;8.026;2022-09-09T03:45:14;16.20;99.90
21207;DHT22;10761;48.532;8.026;2022-09-09T03:47:40;16.20;99.90
21207;DHT22;10761;48.532;8.026;2022-09-09T03:50:07;16.20;99.90
21207;DHT22;10761;48.532;8.026;2022-09-09T03:52:39;16.10;99.90
21207;DHT22;10761;48.532;8.026;2022-09-09T03:55:07;16.10;99.90
21207;DHT22;10761;48.532;8.026;2022-09-09T03:57:33;16.10;99.90
21207;DHT22;10761;48.532;8.026;2022-09-09T04:00:04;16.10;99.90
21207;DHT22;10761;48.532;8.026;2022-09-09T04:02:30;16.00;99.90
21207;DHT22;10761;48.532;8.026;2022-09-09T04:04:55;15.80;99.90
21207;DHT22;10761;48.532;8.026;2022-09-09T04:07:21;15.80;99.90
21207;DHT22;10761;48.532;8.026;2022-09-09T04:09:47;15.70;99.90
21207;DHT22;10761;48.532;8.026;2022-09-09T04:12:13;15.60;99.90
21207;DHT22;10761;48.532;8.026;2022-09-09T04:14:39;15.50;99.90
21207;DHT22;10761;48.532;8.026;2022-09-09T04:17:04;15.50;99.90
21207;DHT22;10761;48.532;8.026;2022-09-09T04:19:32;15.40;99.90
21207;DHT22;10761;48.532;8.026;2022-09-09T04:21:58;15.40;99.90
21207;DHT22;10761;48.532;8.026;2022-09-09T04:24:23;15.30;99.90
21207;DHT22;10761;48.532;8.026;2022-09-09T04:26:51;15.30;99.90
21207;DHT22;10761;48.532;8.026;2022-09-09T04:29:17;15.30;99.90
21207;DHT22;10761;48.532;8.026;2022-09-09T04:31:43;15.30;99.90
21207;DHT22;10761;48.532;8.026;2022-09-09T04:34:09;15.30;99.90
21207;DHT22;10761;48.532;8.026;2022-09-09T04:36:35;15.30;99.90
21207;DHT22;10761;48.532;8.026;2022-09-09T04:39:01;15.30;99.90
21207;DHT22;10761;48.532;8.026;2022-09-09T04:41:27;15.40;99.90
21207;DHT22;10761;48.532;8.026;2022-09-09T04:43:53;15.40;99.90
21207;DHT22;10761;48.532;8.026;2022-09-09T04:46:20;15.40;99.90
21207;DHT22;10761;48.532;8.026;2022-09-09T04:48:46;15.50;99.90
21207;DHT22;10761;48.532;8.026;2022-09-09T04:51:13;15.60;99.90
21207;DHT22;10761;48.532;8.026;2022-09-09T04:53:39;15.60;99.90
21207;DHT22;10761;48.532;8.026;2022-09-09T04:56:07;15.70;99.90
21207;DHT22;10761;48.532;8.026;2022-09-09T04:58:33;15.70;99.90
21207;DHT22;10761;48.532;8.026;2022-09-09T05:01:06;15.70;99.90
21207;DHT22;10761;48.532;8.026;2022-09-09T05:03:32;15.70;99.90
21207;DHT22;10761;48.532;8.026;2022-09-09T05:06:06;15.70;99.90
21207;DHT22;10761;48.532;8.026;2022-09-09T05:08:34;15.70;99.90
21207;DHT22;10761;48.532;8.026;2022-09-09T05:11:00;15.70;99.90
21207;DHT22;10761;48.532;8.026;2022-09-09T05:13:26;15.80;99.90
21207;DHT22;10761;48.532;8.026;2022-09-09T05:15:53;15.70;99.90
21207;DHT22;10761;48.532;8.026;2022-09-09T05:18:19;15.80;99.90
21207;DHT22;10761;48.532;8.026;2022-09-09T05:20:44;15.70;99.90
21207;DHT22;10761;48.532;8.026;2022-09-09T05:23:10;15.70;99.90
21207;DHT22;10761;48.532;8.026;2022-09-09T05:25:39;15.60;99.90
21207;DHT22;10761;48.532;8.026;2022-09-09T05:28:05;15.60;99.90
21207;DHT22;10761;48.532;8.026;2022-09-09T05:30:33;15.60;99.90
21207;DHT22;10761;48.532;8.026;2022-09-09T05:32:59;15.70;99.90
21207;DHT22;10761;48.532;8.026;2022-09-09T05:35:25;15.70;99.90
21207;DHT22;10761;48.532;8.026;2022-09-09T05:37:51;15.80;99.90
21207;DHT22;10761;48.532;8.026;2022-09-09T05:40:16;15.80;99.90
21207;DHT22;10761;48.532;8.026;2022-09-09T05:42:42;15.80;99.90
21207;DHT22;10761;48.532;8.026;2022-09-09T05:45:08;15.90;99.90
21207;DHT22;10761;48.532;8.026;2022-09-09T05:47:35;15.90;99.90
21207;DHT22;10761;48.532;8.026;2022-09-09T05:50:02;15.90;99.90
21207;DHT22;10761;48.532;8.026;2022-09-09T05:52:28;16.00;99.90
21207;DHT22;10761;48.532;8.026;2022-09-09T05:54:54;16.10;99.90
21207;DHT22;10761;48.532;8.026;2022-09-09T05:57:20;16.20;99.90
21207;DHT22;10761;48.532;8.026;2022-09-09T05:59:46;16.30;99.90
21207;DHT22;10761;48.532;8.026;2022-09-09T06:02:12;16.40;99.90
21207;DHT22;10761;48.532;8.026;2022-09-09T06:04:38;16.40;99.90
21207;DHT22;10761;48.532;8.026;2022-09-09T06:07:04;16.50;99.90
21207;DHT22;10761;48.532;8.026;2022-09-09T06:09:30;16.60;99.90
21207;DHT22;10761;48.532;8.026;2022-09-09T06:11:56;16.70;99.90
21207;DHT22;10761;48.532;8.026;2022-09-09T06:14:23;16.80;99.90
21207;DHT22;10761;48.532;8.026;2022-09-09T06:16:50;16.90;99.90
21207;DHT22;10761;48.532;8.026;2022-09-09T06:19:16;17.00;99.90
21207;DHT22;10761;48.532;8.026;2022-09-09T06:21:42;17.10;99.90
21207;DHT22;10761;48.532;8.026;2022-09-09T06:24:09;17.20;99.90
21207;DHT22;10761;48.532;8.026;2022-09-09T06:26:37;17.20;99.90
21207;DHT22;10761;48.532;8.026;2022-09-09T06:29:06;17.30;99.90
21207;DHT22;10761;48.532;8.026;2022-09-09T06:31:34;17.30;99.90
21207;DHT22;10761;48.532;8.026;2022-09-09T06:34:01;17.40;99.90
21207;DHT22;10761;48.532;8.026;2022-09-09T06:36:29;17.40;99.90
21207;DHT22;10761;48.532;8.026;2022-09-09T06:38:55;17.40;99.90
21207;DHT22;10761;48.532;8.026;2022-09-09T06:41:23;17.50;99.90
21207;DHT22;10761;48.532;8.026;2022-09-09T06:43:49;17.70;99.90
21207;DHT22;10761;48.532;8.026;2022-09-09T06:46:20;17.70;99.90
21207;DHT22;10761;48.532;8.026;2022-09-09T06:48:47;17.80;99.90
21207;DHT22;10761;48.532;8.026;2022-09-09T06:51:16;17.80;99.90
21207;DHT22;10761;48.532;8.026;2022-09-09T06:53:44;18.00;99.90
21207;DHT22;10761;48.532;8.026;2022-09-09T06:58:42;18.10;99.90
21207;DHT22;10761;48.532;8.026;2022-09-09T07:01:14;18.10;99.90
21207;DHT22;10761;48.532;8.026;2022-09-09T07:03:41;18.10;99.90
21207;DHT22;10761;48.532;8.026;2022-09-09T07:06:09;18.00;99.90
21207;DHT22;10761;48.532;8.026;2022-09-09T07:08:39;18.00;99.90
21207;DHT22;10761;48.532;8.026;2022-09-09T07:11:07;18.00;99.90
21207;DHT22;10761;48.532;8.026;2022-09-09T07:13:33;17.70;99.90
21207;DHT22;10761;48.532;8.026;2022-09-09T07:16:07;17.60;99.90
21207;DHT22;10761;48.532;8.026;2022-09-09T07:18:33;17.70;99.90
21207;DHT22;10761;48.532;8.026;2022-09-09T07:21:00;18.00;99.90
21207;DHT22;10761;48.532;8.026;2022-09-09T07:23:28;18.70;99.90
21207;DHT22;10761;48.532;8.026;2022-09-09T07:25:53;19.10;99.90
21207;DHT22;10761;48.532;8.026;2022-09-09T07:28:20;19.40;99.90
21207;DHT22;10761;48.532;8.026;2022-09-09T07:30:55;19.80;99.90
21207;DHT22;10761;48.532;8.026;2022-09-09T07:33:21;19.70;99.90
21207;DHT22;10761;48.532;8.026;2022-09-09T07:35:47;19.40;99.90
21207;DHT22;10761;48.532;8.026;2022-09-09T07:38:13;18.90;99.90
21207;DHT22;10761;48.532;8.026;2022-09-09T07:40:40;18.50;99.90
21207;DHT22;10761;48.532;8.026;2022-09-09T07:43:06;18.20;99.90
21207;DHT22;10761;48.532;8.026;2022-09-09T07:45:33;18.40;99.90
21207;DHT22;10761;48.532;8.026;2022-09-09T07:48:00;19.00;99.90
21207;DHT22;10761;48.532;8.026;2022-09-09T07:50:25;19.40;99.90
21207;DHT22;10761;48.532;8.026;2022-09-09T07:52:52;19.70;99.90
21207;DHT22;10761;48.532;8.026;2022-09-09T07:55:19;20.00;99.90
21207;DHT22;10761;48.532;8.026;2022-09-09T07:57:45;20.60;99.90
21207;DHT22;10761;48.532;8.026;2022-09-09T08:00:12;20.60;99.90
21207;DHT22;10761;48.532;8.026;2022-09-09T08:02:38;20.80;99.90
21207;DHT22;10761;48.532;8.026;2022-09-09T08:05:04;20.70;99.90
21207;DHT22;10761;48.532;8.026;2022-09-09T08:07:31;20.90;99.90
21207;DHT22;10761;48.532;8.026;2022-09-09T08:09:57;20.90;99.90
21207;DHT22;10761;48.532;8.026;2022-09-09T08:12:23;20.80;99.90
21207;DHT22;10761;48.532;8.026;2022-09-09T08:14:49;20.50;99.90
21207;DHT22;10761;48.532;8.026;2022-09-09T08:17:14;20.40;99.90
21207;DHT22;10761;48.532;8.026;2022-09-09T08:19:40;20.10;99.90
21207;DHT22;10761;48.532;8.026;2022-09-09T08:22:06;19.90;99.90
21207;DHT22;10761;48.532;8.026;2022-09-09T08:24:33;20.10;99.90
21207;DHT22;10761;48.532;8.026;2022-09-09T08:26:59;20.30;99.90
21207;DHT22;10761;48.532;8.026;2022-09-09T08:29:25;20.40;99.90
21207;DHT22;10761;48.532;8.026;2022-09-09T08:31:53;20.70;99.90
21207;DHT22;10761;48.532;8.026;2022-09-09T08:34:20;21.00;99.90
21207;DHT22;10761;48.532;8.026;2022-09-09T08:36:47;21.30;99.90
21207;DHT22;10761;48.532;8.026;2022-09-09T08:39:15;21.40;99.90
21207;DHT22;10761;48.532;8.026;2022-09-09T08:41:58;21.30;99.90
21207;DHT22;10761;48.532;8.026;2022-09-09T08:47:47;22.30;99.90
21207;DHT22;10761;48.532;8.026;2022-09-09T08:50:36;22.40;99.90
21207;DHT22;10761;48.532;8.026;2022-09-09T08:53:24;23.00;99.90
21207;DHT22;10761;48.532;8.026;2022-09-09T08:55:57;22.90;99.90
21207;DHT22;10761;48.532;8.026;2022-09-09T08:58:32;22.50;99.90
21207;DHT22;10761;48.532;8.026;2022-09-09T09:04:41;22.20;99.90
21207;DHT22;10761;48.532;8.026;2022-09-09T09:06:50;22.30;99.90
21207;DHT22;10761;48.532;8.026;2022-09-09T09:09:45;22.00;99.90
21207;DHT22;10761;48.532;8.026;2022-09-09T09:12:17;21.10;99.90
21207;DHT22;10761;48.532;8.026;2022-09-09T09:14:46;20.80;99.90
21207;DHT22;10761;48.532;8.026;2022-09-09T09:17:20;20.60;99.90
21207;DHT22;10761;48.532;8.026;2022-09-09T09:19:47;20.40;99.90
21207;DHT22;10761;48.532;8.026;2022-09-09T09:30:59;20.30;99.90
21207;DHT22;10761;48.532;8.026;2022-09-09T09:33:58;20.50;99.90
21207;DHT22;10761;48.532;8.026;2022-09-09T09:36:40;20.50;99.90
21207;DHT22;10761;48.532;8.026;2022-09-09T09:39:07;20.30;99.90
21207;DHT22;10761;48.532;8.026;2022-09-09T09:44:01;20.10;99.90
21207;DHT22;10761;48.532;8.026;2022-09-09T09:46:27;20.10;99.90
21207;DHT22;10761;48.532;8.026;2022-09-09T09:49:01;20.00;99.90
21207;DHT22;10761;48.532;8.026;2022-09-09T09:51:28;19.90;99.90
21207;DHT22;10761;48.532;8.026;2022-09-09T09:54:21;19.60;99.90
21207;DHT22;10761;48.532;8.026;2022-09-09T09:56:48;19.40;99.90
21207;DHT22;10761;48.532;8.026;2022-09-09T09:59:40;19.20;99.90
21207;DHT22;10761;48.532;8.026;2022-09-09T10:02:21;18.90;99.90
21207;DHT22;10761;48.532;8.026;2022-09-09T10:05:01;17.80;99.90
21207;DHT22;10761;48.532;8.026;2022-09-09T10:07:27;16.50;99.90
21207;DHT22;10761;48.532;8.026;2022-09-09T10:09:56;15.90;99.90
21207;DHT22;10761;48.532;8.026;2022-09-09T10:15:25;16.20;99.90
21207;DHT22;10761;48.532;8.026;2022-09-09T10:20:59;16.90;99.90
21207;DHT22;10761;48.532;8.026;2022-09-09T10:36:58;18.90;99.90
21207;DHT22;10761;48.532;8.026;2022-09-09T10:39:36;18.80;99.90
21207;DHT22;10761;48.532;8.026;2022-09-09T10:42:05;18.90;99.90
21207;DHT22;10761;48.532;8.026;2022-09-09T10:55:42;20.00;99.90
21207;DHT22;10761;48.532;8.026;2022-09-09T10:58:14;20.50;99.90
21207;DHT22;10761;48.532;8.026;2022-09-09T11:00:42;20.60;99.90
21207;DHT22;10761;48.532;8.026;2022-09-09T11:03:29;20.60;99.90
21207;DHT22;10761;48.532;8.026;2022-09-09T11:06:06;20.60;99.90
21207;DHT22;10761;48.532;8.026;2022-09-09T11:08:35;20.60;99.90
21207;DHT22;10761;48.532;8.026;2022-09-09T11:11:07;20.50;99.90
21207;DHT22;10761;48.532;8.026;2022-09-09T11:13:55;20.60;99.90
21207;DHT22;10761;48.532;8.026;2022-09-09T11:16:45;20.90;99.90
21207;DHT22;10761;48.532;8.026;2022-09-09T11:21:53;21.80;99.90
21207;DHT22;10761;48.532;8.026;2022-09-09T11:24:24;21.80;99.90
21207;DHT22;10761;48.532;8.026;2022-09-09T11:26:58;22.00;99.90
21207;DHT22;10761;48.532;8.026;2022-09-09T11:32:39;22.50;99.90
21207;DHT22;10761;48.532;8.026;2022-09-09T11:40:55;22.10;99.90
21207;DHT22;10761;48.532;8.026;2022-09-09T11:43:26;21.90;99.90
21207;DHT22;10761;48.532;8.026;2022-09-09T11:45:55;22.30;99.90
21207;DHT22;10761;48.532;8.026;2022-09-09T11:48:33;22.60;99.90
21207;DHT22;10761;48.532;8.026;2022-09-09T11:51:11;23.10;99.90
21207;DHT22;10761;48.532;8.026;2022-09-09T11:53:49;23.40;99.90
21207;DHT22;10761;48.532;8.026;2022-09-09T11:58:59;23.30;99.90
21207;DHT22;10761;48.532;8.026;2022-09-09T12:01:34;22.80;99.90
21207;DHT22;10761;48.532;8.026;2022-09-09T12:04:28;22.40;99.90
21207;DHT22;10761;48.532;8.026;2022-09-09T12:07:21;22.50;99.90
21207;DHT22;10761;48.532;8.026;2022-09-09T12:09:55;22.20;99.90
21207;DHT22;10761;48.532;8.026;2022-09-09T12:12:25;22.30;99.90
21207;DHT22;10761;48.532;8.026;2022-09-09T12:17:28;23.00;99.90
21207;DHT22;10761;48.532;8.026;2022-09-09T12:20:12;22.80;99.90
21207;DHT22;10761;48.532;8.026;2022-09-09T12:22:58;22.80;99.90
21207;DHT22;10761;48.532;8.026;2022-09-09T12:28:17;23.60;99.90
21207;DHT22;10761;48.532;8.026;2022-09-09T12:33:18;23.80;99.90
21207;DHT22;10761;48.532;8.026;2022-09-09T12:35:49;23.40;99.90
21207;DHT22;10761;48.532;8.026;2022-09-09T12:38:24;23.40;99.90
21207;DHT22;10761;48.532;8.026;2022-09-09T12:40:56;23.40;99.90
21207;DHT22;10761;48.532;8.026;2022-09-09T12:43:24;23.50;99.90
21207;DHT22;10761;48.532;8.026;2022-09-09T12:45:52;22.90;99.90
21207;DHT22;10761;48.532;8.026;2022-09-09T12:48:38;22.50;99.90
21207;DHT22;10761;48.532;8.026;2022-09-09T12:51:18;22.20;99.90
21207;DHT22;10761;48.532;8.026;2022-09-09T12:53:45;22.40;99.90
21207;DHT22;10761;48.532;8.026;2022-09-09T12:56:20;22.40;99.90
21207;DHT22;10761;48.532;8.026;2022-09-09T12:58:49;21.90;99.90
21207;DHT22;10761;48.532;8.026;2022-09-09T13:01:23;21.50;99.90
21207;DHT22;10761;48.532;8.026;2022-09-09T13:03:49;21.30;99.90
21207;DHT22;10761;48.532;8.026;2022-09-09T13:06:30;21.10;99.90
21207;DHT22;10761;48.532;8.026;2022-09-09T13:08:58;21.00;99.90
21207;DHT22;10761;48.532;8.026;2022-09-09T13:11:38;20.90;99.90
21207;DHT22;10761;48.532;8.026;2022-09-09T13:14:05;20.70;99.90
21207;DHT22;10761;48.532;8.026;2022-09-09T13:16:35;20.30;99.90
21207;DHT22;10761;48.532;8.026;2022-09-09T13:19:08;20.00;99.90
21207;DHT22;10761;48.532;8.026;2022-09-09T13:21:39;20.00;99.90
21207;DHT22;10761;48.532;8.026;2022-09-09T13:24:07;19.90;99.90
21207;DHT22;10761;48.532;8.026;2022-09-09T13:26:55;19.90;99.90
21207;DHT22;10761;48.532;8.026;2022-09-09T13:29:21;20.10;99.90
21207;DHT22;10761;48.532;8.026;2022-09-09T13:31:48;20.20;99.90
21207;DHT22;10761;48.532;8.026;2022-09-09T13:34:34;20.20;99.90
21207;DHT22;10761;48.532;8.026;2022-09-09T13:37:05;20.30;99.90
21207;DHT22;10761;48.532;8.026;2022-09-09T13:39:36;20.50;99.90
21207;DHT22;10761;48.532;8.026;2022-09-09T13:42:03;20.90;99.90
21207;DHT22;10761;48.532;8.026;2022-09-09T13:44:34;21.00;99.90
21207;DHT22;10761;48.532;8.026;2022-09-09T13:47:19;21.10;99.90
21207;DHT22;10761;48.532;8.026;2022-09-09T13:49:45;22.00;99.90
21207;DHT22;10761;48.532;8.026;2022-09-09T13:52:13;23.90;99.90
21207;DHT22;10761;48.532;8.026;2022-09-09T13:54:40;25.40;99.90
21207;DHT22;10761;48.532;8.026;2022-09-09T13:57:18;26.30;99.90
21207;DHT22;10761;48.532;8.026;2022-09-09T13:59:45;26.00;99.90
21207;DHT22;10761;48.532;8.026;2022-09-09T14:02:11;25.30;99.90
21207;DHT22;10761;48.532;8.026;2022-09-09T14:04:37;24.90;99.90
21207;DHT22;10761;48.532;8.026;2022-09-09T14:07:03;24.30;99.90
21207;DHT22;10761;48.532;8.026;2022-09-09T14:09:29;23.70;99.90
21207;DHT22;10761;48.532;8.026;2022-09-09T14:11:54;22.90;99.90
21207;DHT22;10761;48.532;8.026;2022-09-09T14:14:20;22.40;99.90
21207;DHT22;10761;48.532;8.026;2022-09-09T14:16:46;22.20;99.90
21207;DHT22;10761;48.532;8.026;2022-09-09T14:19:12;22.40;99.90
21207;DHT22;10761;48.532;8.026;2022-09-09T14:21:38;22.40;99.90
21207;DHT22;10761;48.532;8.026;2022-09-09T14:24:04;22.40;99.90
21207;DHT22;10761;48.532;8.026;2022-09-09T14:26:30;22.30;99.90
21207;DHT22;10761;48.532;8.026;2022-09-09T14:28:56;22.20;99.90
21207;DHT22;10761;48.532;8.026;2022-09-09T14:31:22;22.00;99.90
21207;DHT22;10761;48.532;8.026;2022-09-09T14:33:48;21.70;99.90
21207;DHT22;10761;48.532;8.026;2022-09-09T14:36:13;21.30;99.90
21207;DHT22;10761;48.532;8.026;2022-09-09T14:38:40;21.10;99.90
21207;DHT22;10761;48.532;8.026;2022-09-09T14:41:10;21.00;99.90
21207;DHT22;10761;48.532;8.026;2022-09-09T14:43:38;21.00;99.90
21207;DHT22;10761;48.532;8.026;2022-09-09T14:46:09;20.80;99.90
21207;DHT22;10761;48.532;8.026;2022-09-09T14:48:35;20.60;99.90
21207;DHT22;10761;48.532;8.026;2022-09-09T14:51:12;20.50;99.90
21207;DHT22;10761;48.532;8.026;2022-09-09T14:53:39;20.30;99.90
21207;DHT22;10761;48.532;8.026;2022-09-09T14:56:14;20.10;99.90
21207;DHT22;10761;48.532;8.026;2022-09-09T14:58:39;19.30;99.90
21207;DHT22;10761;48.532;8.026;2022-09-09T15:01:11;18.20;99.90
21207;DHT22;10761;48.532;8.026;2022-09-09T15:03:38;17.60;99.90
21207;DHT22;10761;48.532;8.026;2022-09-09T15:06:08;17.40;99.90
21207;DHT22;10761;48.532;8.026;2022-09-09T15:08:35;17.40;99.90
21207;DHT22;10761;48.532;8.026;2022-09-09T15:11:02;17.50;99.90
21207;DHT22;10761;48.532;8.026;2022-09-09T15:13:28;17.70;99.90
21207;DHT22;10761;48.532;8.026;2022-09-09T15:15:54;18.00;99.90
21207;DHT22;10761;48.532;8.026;2022-09-09T15:18:20;18.40;99.90
21207;DHT22;10761;48.532;8.026;2022-09-09T15:20:46;19.00;99.90
21207;DHT22;10761;48.532;8.026;2022-09-09T15:23:13;19.70;99.90
21207;DHT22;10761;48.532;8.026;2022-09-09T15:25:50;20.60;99.90
21207;DHT22;10761;48.532;8.026;2022-09-09T15:28:16;21.40;99.90
21207;DHT22;10761;48.532;8.026;2022-09-09T15:30:41;22.30;99.90
21207;DHT22;10761;48.532;8.026;2022-09-09T15:33:08;23.50;99.90
21207;DHT22;10761;48.532;8.026;2022-09-09T15:35:33;23.50;99.90
21207;DHT22;10761;48.532;8.026;2022-09-09T15:38:02;22.70;99.90
21207;DHT22;10761;48.532;8.026;2022-09-09T15:40:30;22.00;99.90
21207;DHT22;10761;48.532;8.026;2022-09-09T15:42:58;21.50;99.90
21207;DHT22;10761;48.532;8.026;2022-09-09T15:45:23;21.20;99.90
21207;DHT22;10761;48.532;8.026;2022-09-09T15:47:49;21.00;99.90
21207;DHT22;10761;48.532;8.026;2022-09-09T15:50:15;20.70;99.90
21207;DHT22;10761;48.532;8.026;2022-09-09T15:52:40;20.50;99.90
21207;DHT22;10761;48.532;8.026;2022-09-09T15:55:07;20.40;99.90
21207;DHT22;10761;48.532;8.026;2022-09-09T15:57:33;20.20;99.90
21207;DHT22;10761;48.532;8.026;2022-09-09T16:00:00;20.10;99.90
21207;DHT22;10761;48.532;8.026;2022-09-09T16:02:26;19.90;99.90
21207;DHT22;10761;48.532;8.026;2022-09-09T16:04:52;19.80;99.90
21207;DHT22;10761;48.532;8.026;2022-09-09T16:07:17;19.60;99.90
21207;DHT22;10761;48.532;8.026;2022-09-09T16:09:43;19.40;99.90
21207;DHT22;10761;48.532;8.026;2022-09-09T16:12:09;19.30;99.90
21207;DHT22;10761;48.532;8.026;2022-09-09T16:14:37;19.10;99.90
21207;DHT22;10761;48.532;8.026;2022-09-09T16:17:04;18.90;99.90
21207;DHT22;10761;48.532;8.026;2022-09-09T16:19:31;18.70;99.90
21207;DHT22;10761;48.532;8.026;2022-09-09T16:21:57;18.60;99.90
21207;DHT22;10761;48.532;8.026;2022-09-09T16:24:23;18.50;99.90
21207;DHT22;10761;48.532;8.026;2022-09-09T16:26:53;18.50;99.90
21207;DHT22;10761;48.532;8.026;2022-09-09T16:29:20;18.40;99.90
21207;DHT22;10761;48.532;8.026;2022-09-09T16:31:47;18.40;99.90
21207;DHT22;10761;48.532;8.026;2022-09-09T16:34:14;18.40;99.90
21207;DHT22;10761;48.532;8.026;2022-09-09T16:36:41;18.50;99.90
21207;DHT22;10761;48.532;8.026;2022-09-09T16:39:12;18.50;99.90
21207;DHT22;10761;48.532;8.026;2022-09-09T16:41:40;18.50;99.90
21207;DHT22;10761;48.532;8.026;2022-09-09T16:44:08;18.50;99.90
21207;DHT22;10761;48.532;8.026;2022-09-09T16:46:36;18.50;99.90
21207;DHT22;10761;48.532;8.026;2022-09-09T16:49:05;18.50;99.90
21207;DHT22;10761;48.532;8.026;2022-09-09T16:51:33;18.50;99.90
21207;DHT22;10761;48.532;8.026;2022-09-09T16:54:01;18.50;99.90
21207;DHT22;10761;48.532;8.026;2022-09-09T16:56:29;18.50;99.90
21207;DHT22;10761;48.532;8.026;2022-09-09T16:58:59;18.50;99.90
21207;DHT22;10761;48.532;8.026;2022-09-09T17:01:28;18.50;99.90
21207;DHT22;10761;48.532;8.026;2022-09-09T17:03:54;18.50;99.90
21207;DHT22;10761;48.532;8.026;2022-09-09T17:06:20;18.70;99.90
21207;DHT22;10761;48.532;8.026;2022-09-09T17:08:46;19.30;99.90
21207;DHT22;10761;48.532;8.026;2022-09-09T17:11:18;20.30;99.90
21207;DHT22;10761;48.532;8.026;2022-09-09T17:13:45;20.50;99.90
21207;DHT22;10761;48.532;8.026;2022-09-09T17:16:12;20.20;99.90
21207;DHT22;10761;48.532;8.026;2022-09-09T17:18:38;19.80;99.90
21207;DHT22;10761;48.532;8.026;2022-09-09T17:21:09;19.70;99.90
21207;DHT22;10761;48.532;8.026;2022-09-09T17:23:36;20.00;99.90